Time;durP1;ratioP1;P1;durP2;ratioP2;P2;SDS_P1;SDS_P2;PMS_P1;PMS_P2;Temp;Humidity;BMP_temperature;BMP_pressure;BME280_temperature;BME280_humidity;BME280_pressure;Samples;Min_cycle;Max_cycle;Signal;HPM_P1;HPM_P2
2022/09/23 00:00:36;;;;;;;14.35;13.07;;;10.90;80.80;;;;;;5115373;28;20044;-78
2022/09/23 00:03:02;;;;;;;13.77;12.48;;;11.00;80.70;;;;;;5115579;28;20506;-78
2022/09/23 00:05:29;;;;;;;14.73;13.32;;;10.90;80.90;;;;;;5098684;28;20043;-78
2022/09/23 00:07:56;;;;;;;14.30;12.90;;;10.90;80.80;;;;;;5115749;28;20387;-77
2022/09/23 00:10:23;;;;;;;10.07;9.18;;;10.90;80.90;;;;;;5115456;28;20383;-79
2022/09/23 00:12:49;;;;;;;14.68;13.27;;;10.90;80.90;;;;;;5115219;28;20073;-77
2022/09/23 00:15:15;;;;;;;14.88;13.07;;;11.00;80.80;;;;;;5115054;28;20039;-79
2022/09/23 00:17:41;;;;;;;15.80;14.15;;;10.90;80.80;;;;;;5114984;28;20032;-78
2022/09/23 00:20:09;;;;;;;14.75;13.23;;;11.00;80.70;;;;;;5097988;28;20099;-78
2022/09/23 00:22:35;;;;;;;14.57;12.98;;;11.00;80.90;;;;;;5114801;28;20035;-78
2022/09/23 00:25:06;;;;;;;15.45;13.85;;;10.90;80.70;;;;;;5098160;28;20035;-78
2022/09/23 00:27:32;;;;;;;14.70;13.30;;;10.90;80.60;;;;;;5114708;28;20224;-80
2022/09/23 00:29:59;;;;;;;14.32;12.88;;;11.00;80.70;;;;;;5114876;28;20035;-77
2022/09/23 00:32:25;;;;;;;16.05;14.45;;;10.90;80.80;;;;;;5097847;28;20134;-78
2022/09/23 00:34:51;;;;;;;16.23;14.68;;;10.90;80.70;;;;;;5114820;28;20388;-78
2022/09/23 00:37:20;;;;;;;16.95;14.32;;;10.90;80.80;;;;;;5097678;28;20043;-77
2022/09/23 00:39:46;;;;;;;18.42;14.15;;;11.00;80.70;;;;;;5114475;28;20043;-78
2022/09/23 00:42:19;;;;;;;15.55;12.82;;;10.90;80.80;;;;;;5080843;28;20039;-79
2022/09/23 00:44:58;;;;;;;16.27;14.73;;;11.00;80.40;;;;;;5114600;28;20040;-78
2022/09/23 00:47:48;;;;;;;15.55;13.98;;;10.90;80.60;;;;;;5114506;28;20071;-79
2022/09/23 00:50:26;;;;;;;17.70;14.68;;;11.00;80.50;;;;;;5114491;28;20043;-77
2022/09/23 00:52:55;;;;;;;17.80;15.05;;;11.00;80.40;;;;;;5114369;28;20047;-78
2022/09/23 00:55:31;;;;;;;16.98;15.27;;;11.00;80.40;;;;;;5114635;28;20044;-77
2022/09/23 00:58:00;;;;;;;15.35;13.77;;;11.00;80.40;;;;;;5114368;28;20387;-78
2022/09/23 01:00:25;;;;;;;16.30;14.73;;;11.00;80.70;;;;;;5114540;28;20032;-78
2022/09/23 01:02:51;;;;;;;15.98;14.48;;;10.90;80.80;;;;;;5097272;28;20571;-78
2022/09/23 01:05:18;;;;;;;27.52;16.17;;;10.90;80.90;;;;;;5114428;28;20039;-77
2022/09/23 01:07:44;;;;;;;17.02;15.25;;;10.90;81.00;;;;;;5096977;28;20078;-78
2022/09/23 01:10:12;;;;;;;17.25;15.50;;;10.90;80.80;;;;;;5114158;28;20035;-77
2022/09/23 01:13:09;;;;;;;11.40;10.30;;;10.90;80.90;;;;;;5080464;28;20079;-80
2022/09/23 01:15:35;;;;;;;19.30;12.43;;;10.90;81.10;;;;;;5096484;28;20130;-78
2022/09/23 01:18:12;;;;;;;17.95;16.10;;;11.00;80.80;;;;;;5113912;28;20127;-79
2022/09/23 01:21:05;;;;;;;16.77;15.25;;;11.00;80.80;;;;;;5096870;28;20041;-78
2022/09/23 01:24:08;;;;;;;17.02;15.25;;;11.00;80.70;;;;;;5113993;28;20071;-77
2022/09/23 01:26:58;;;;;;;16.60;15.07;;;11.00;80.80;;;;;;5113691;28;20122;-77
2022/09/23 01:30:15;;;;;;;17.88;15.82;;;11.00;80.80;;;;;;5096926;28;20036;-77
2022/09/23 01:33:03;;;;;;;18.10;15.68;;;11.00;80.80;;;;;;5069384;28;20047;-79
2022/09/23 01:35:42;;;;;;;17.42;15.73;;;10.90;80.90;;;;;;5096517;28;20105;-78
2022/09/23 01:38:34;;;;;;;17.83;16.08;;;10.90;80.90;;;;;;5113293;28;20051;-78
2022/09/23 01:41:27;;;;;;;17.98;15.98;;;10.90;81.00;;;;;;5096628;28;20036;-77
2022/09/23 01:43:54;;;;;;;18.40;16.45;;;10.90;81.00;;;;;;5113508;28;20051;-77
2022/09/23 01:46:30;;;;;;;18.08;16.15;;;10.80;81.10;;;;;;5096547;28;20043;-78
2022/09/23 01:49:08;;;;;;;17.98;16.08;;;10.80;81.00;;;;;;5113443;28;20548;-78
2022/09/23 01:51:38;;;;;;;18.30;16.40;;;10.70;81.00;;;;;;5113367;28;20078;-78
2022/09/23 01:54:21;;;;;;;19.58;16.63;;;10.70;81.00;;;;;;5112867;28;20042;-77
2022/09/23 01:56:53;;;;;;;19.30;17.15;;;10.60;80.90;;;;;;5113199;28;20069;-80
2022/09/23 01:59:24;;;;;;;19.38;17.48;;;10.50;80.90;;;;;;5112881;28;20122;-76
2022/09/23 02:02:24;;;;;;;19.70;17.70;;;10.50;80.90;;;;;;5113171;28;20032;-79
2022/09/23 02:05:04;;;;;;;19.50;17.65;;;10.40;81.10;;;;;;5109596;28;20097;-80
2022/09/23 02:08:07;;;;;;;20.35;18.38;;;10.40;81.20;;;;;;5113165;28;20376;-79
2022/09/23 02:10:46;;;;;;;19.83;17.92;;;10.40;81.50;;;;;;5088917;28;20086;-79
2022/09/23 02:13:28;;;;;;;20.85;18.13;;;10.30;81.60;;;;;;5113075;28;20043;-78
2022/09/23 02:16:00;;;;;;;20.35;18.10;;;10.30;81.70;;;;;;5096251;28;20494;-78
2022/09/23 02:18:30;;;;;;;21.65;19.35;;;10.30;81.90;;;;;;5113030;28;20467;-79
2022/09/23 02:21:00;;;;;;;21.02;18.85;;;10.30;82.10;;;;;;5113137;28;20042;-79
2022/09/23 02:23:34;;;;;;;21.42;19.23;;;10.20;81.90;;;;;;5112752;28;20035;-79
2022/09/23 02:26:34;;;;;;;20.23;18.23;;;10.20;81.90;;;;;;5095727;28;20031;-79
2022/09/23 02:29:18;;;;;;;20.83;18.73;;;10.10;81.70;;;;;;5112902;28;20486;-79
2022/09/23 02:31:48;;;;;;;20.63;18.42;;;10.10;81.70;;;;;;5112669;28;20039;-77
2022/09/23 02:34:20;;;;;;;21.63;18.48;;;10.00;81.80;;;;;;5112896;28;20051;-79
2022/09/23 02:37:10;;;;;;;21.25;19.17;;;10.00;81.80;;;;;;5112337;28;20399;-79
2022/09/23 02:40:18;;;;;;;21.60;19.15;;;10.00;81.90;;;;;;5095340;28;20050;-79
2022/09/23 02:43:18;;;;;;;21.38;19.30;;;10.00;82.20;;;;;;5112285;28;20036;-79
2022/09/23 02:45:45;;;;;;;23.15;20.88;;;10.00;82.20;;;;;;5112708;28;20054;-77
2022/09/23 02:48:29;;;;;;;22.45;20.25;;;9.90;82.00;;;;;;5112699;28;20051;-78
2022/09/23 02:50:54;;;;;;;22.95;20.70;;;9.90;82.00;;;;;;5095582;28;20044;-78
2022/09/23 02:53:24;;;;;;;21.52;19.33;;;9.80;82.20;;;;;;5095786;28;20047;-79
2022/09/23 02:55:50;;;;;;;23.55;21.20;;;9.80;82.20;;;;;;5112446;28;20535;-78
2022/09/23 02:58:18;;;;;;;22.52;20.23;;;9.80;82.10;;;;;;5112508;28;20127;-79
2022/09/23 03:01:07;;;;;;;23.05;20.38;;;9.80;82.10;;;;;;5095882;28;20048;-78
2022/09/23 03:03:43;;;;;;;27.02;22.52;;;9.80;82.20;;;;;;5112533;28;20126;-78
2022/09/23 03:06:32;;;;;;;23.92;21.48;;;9.70;82.30;;;;;;5113937;28;20547;-79
2022/09/23 03:09:23;;;;;;;23.48;20.98;;;9.70;82.40;;;;;;5116331;28;20039;-78
2022/09/23 03:11:56;;;;;;;24.00;21.55;;;9.60;82.30;;;;;;5116830;28;20047;-79
2022/09/23 03:14:32;;;;;;;24.33;21.83;;;9.60;82.30;;;;;;5116545;28;20050;-80
2022/09/23 03:17:04;;;;;;;25.48;22.92;;;9.60;82.30;;;;;;5116536;28;20488;-78
2022/09/23 03:19:49;;;;;;;25.63;23.02;;;9.60;82.40;;;;;;5098779;28;20101;-80
2022/09/23 03:22:17;;;;;;;;;;;9.60;82.50;;;;;;5099779;28;20387;-78
2022/09/23 03:24:45;;;;;;;25.63;22.92;;;9.60;83.00;;;;;;5099260;28;19920;-79
2022/09/23 03:27:18;;;;;;;26.33;23.38;;;9.50;82.80;;;;;;5116476;28;20057;-79
2022/09/23 03:29:47;;;;;;;26.75;23.90;;;9.50;82.60;;;;;;5116071;28;20040;-77
2022/09/23 03:32:17;;;;;;;26.17;22.95;;;9.50;82.90;;;;;;5115979;28;20044;-78
2022/09/23 03:34:47;;;;;;;25.52;22.83;;;9.50;82.90;;;;;;5115940;28;20046;-77
2022/09/23 03:37:43;;;;;;;27.08;24.42;;;9.50;83.40;;;;;;5115485;28;20060;-78
2022/09/23 03:40:16;;;;;;;24.60;22.00;;;9.50;83.40;;;;;;5115853;28;20039;-78
2022/09/23 03:42:42;;;;;;;27.77;23.30;;;9.50;83.20;;;;;;5115939;28;20039;-79
2022/09/23 03:45:17;;;;;;;24.60;22.10;;;9.50;83.20;;;;;;5115526;28;20050;-78
2022/09/23 03:47:43;;;;;;;26.75;24.20;;;9.50;83.10;;;;;;5115595;28;20054;-78
2022/09/23 03:50:10;;;;;;;28.80;24.02;;;9.50;83.30;;;;;;5115556;28;20079;-79
2022/09/23 03:52:38;;;;;;;26.77;23.95;;;9.50;83.20;;;;;;5098774;28;20135;-77
2022/09/23 03:55:07;;;;;;;26.30;23.30;;;9.50;83.10;;;;;;5115340;28;20051;-77
2022/09/23 03:57:33;;;;;;;24.88;22.40;;;9.50;83.00;;;;;;5115836;28;20432;-79
2022/09/23 03:59:59;;;;;;;25.65;22.90;;;9.50;82.80;;;;;;5098539;28;20032;-77
2022/09/23 04:02:25;;;;;;;25.75;23.02;;;9.50;82.80;;;;;;5115496;28;20490;-79
2022/09/23 04:04:50;;;;;;;25.30;22.60;;;9.50;83.00;;;;;;5115735;28;20365;-78
2022/09/23 04:07:16;;;;;;;24.55;21.92;;;9.30;82.80;;;;;;5098265;28;20050;-78
2022/09/23 04:09:42;;;;;;;24.98;22.35;;;9.30;82.80;;;;;;5114982;28;20047;-80
2022/09/23 04:12:13;;;;;;;27.70;24.63;;;9.30;82.80;;;;;;5115143;28;20035;-77
2022/09/23 04:14:39;;;;;;;25.10;22.52;;;9.30;83.20;;;;;;5115393;28;20077;-77
2022/09/23 04:17:05;;;;;;;27.13;23.80;;;9.30;83.20;;;;;;5114613;28;20035;-77
2022/09/23 04:19:31;;;;;;;24.70;22.05;;;9.30;83.40;;;;;;5114969;28;20403;-78
2022/09/23 04:21:56;;;;;;;27.58;23.42;;;9.30;83.40;;;;;;5114996;28;20088;-77
2022/09/23 04:24:22;;;;;;;26.08;23.27;;;9.30;83.90;;;;;;5115174;28;20043;-79
2022/09/23 04:26:56;;;;;;;26.42;22.77;;;9.30;83.80;;;;;;5115160;28;20092;-79
2022/09/23 04:29:23;;;;;;;21.67;19.47;;;9.30;83.60;;;;;;5081080;28;20071;-79
2022/09/23 04:31:49;;;;;;;26.50;23.67;;;9.40;83.60;;;;;;5097367;28;20039;-78
2022/09/23 04:34:16;;;;;;;25.90;23.27;;;9.40;83.60;;;;;;5097873;28;20039;-80
2022/09/23 04:36:45;;;;;;;24.73;22.25;;;9.40;83.30;;;;;;5114520;28;20415;-78
2022/09/23 04:39:12;;;;;;;27.00;24.20;;;9.30;83.10;;;;;;5114491;28;20488;-80
2022/09/23 04:41:38;;;;;;;26.92;23.60;;;9.30;83.10;;;;;;5097800;28;20043;-77
2022/09/23 04:44:04;;;;;;;27.05;24.08;;;9.30;83.20;;;;;;5097575;28;20092;-78
2022/09/23 04:46:30;;;;;;;28.08;24.80;;;9.30;83.40;;;;;;5097498;28;20038;-78
2022/09/23 04:48:56;;;;;;;26.65;23.83;;;9.30;83.70;;;;;;5114261;28;20453;-78
2022/09/23 04:51:23;;;;;;;28.08;23.52;;;9.30;83.90;;;;;;5114289;28;20134;-77
2022/09/23 04:53:51;;;;;;;28.23;24.00;;;9.30;84.10;;;;;;5114272;28;20483;-77
2022/09/23 04:56:19;;;;;;;25.38;22.70;;;9.30;83.70;;;;;;5114271;28;20039;-76
2022/09/23 04:58:46;;;;;;;26.33;23.48;;;9.30;84.00;;;;;;5114055;28;20100;-77
2022/09/23 05:01:23;;;;;;;27.77;24.88;;;9.30;83.90;;;;;;5114257;28;20040;-77
2022/09/23 05:03:50;;;;;;;26.67;23.98;;;9.30;83.50;;;;;;5114317;28;20395;-76
2022/09/23 05:06:19;;;;;;;28.20;23.77;;;9.30;84.00;;;;;;5113832;28;20046;-76
2022/09/23 05:08:55;;;;;;;27.25;22.52;;;9.30;84.30;;;;;;5114062;28;20054;-76
2022/09/23 05:11:22;;;;;;;29.48;23.65;;;9.20;84.70;;;;;;5113909;28;20043;-76
2022/09/23 05:13:50;;;;;;;26.48;23.42;;;9.20;84.40;;;;;;5113819;28;20057;-76
2022/09/23 05:16:19;;;;;;;26.55;23.63;;;9.20;84.30;;;;;;5113672;28;20085;-77
2022/09/23 05:18:45;;;;;;;25.27;21.63;;;9.30;84.30;;;;;;5097323;28;20082;-77
2022/09/23 05:21:14;;;;;;;25.38;22.48;;;9.30;84.10;;;;;;5113583;28;20035;-75
2022/09/23 05:23:41;;;;;;;27.25;23.38;;;9.30;84.30;;;;;;5113476;28;20039;-76
2022/09/23 05:26:09;;;;;;;26.15;22.20;;;9.30;84.30;;;;;;5096584;28;20046;-76
2022/09/23 05:28:38;;;;;;;28.42;25.20;;;9.30;84.40;;;;;;5112403;28;20081;-76
2022/09/23 05:31:13;;;;;;;29.38;25.30;;;9.30;84.30;;;;;;5113004;28;20138;-75
2022/09/23 05:33:41;;;;;;;26.55;22.58;;;9.40;84.20;;;;;;5113666;28;20108;-76
2022/09/23 05:36:07;;;;;;;28.90;25.17;;;9.40;84.30;;;;;;5096288;28;20058;-75
2022/09/23 05:38:33;;;;;;;30.48;24.23;;;9.40;84.10;;;;;;5113174;28;20048;-77
2022/09/23 05:41:02;;;;;;;30.35;23.35;;;9.50;84.00;;;;;;5113529;28;20039;-74
2022/09/23 05:43:28;;;;;;;36.20;23.58;;;9.50;83.80;;;;;;5113236;28;20036;-76
2022/09/23 05:46:11;;;;;;;43.70;23.70;;;9.50;83.90;;;;;;5113195;28;20071;-76
2022/09/23 05:48:38;;;;;;;34.90;24.65;;;9.50;83.80;;;;;;5113058;28;20122;-75
2022/09/23 05:51:09;;;;;;;27.98;22.17;;;9.40;84.10;;;;;;5113006;28;20043;-74
2022/09/23 05:53:36;;;;;;;30.98;22.50;;;9.40;84.10;;;;;;5113169;28;20051;-75
2022/09/23 05:56:02;;;;;;;28.42;23.10;;;9.50;83.90;;;;;;5113208;28;20139;-75
2022/09/23 05:58:28;;;;;;;24.65;21.88;;;9.50;84.30;;;;;;5112727;28;20495;-75
2022/09/23 06:00:55;;;;;;;26.92;22.65;;;9.50;84.50;;;;;;5109495;28;20083;-76
2022/09/23 06:03:22;;;;;;;28.15;23.48;;;9.50;84.40;;;;;;5106889;28;20048;-75
2022/09/23 06:05:50;;;;;;;27.15;23.50;;;9.60;84.30;;;;;;5106337;28;20514;-74
2022/09/23 06:08:16;;;;;;;24.80;21.48;;;9.60;84.20;;;;;;5106701;28;20526;-74
2022/09/23 06:10:45;;;;;;;24.15;21.55;;;9.60;84.40;;;;;;5106738;28;20079;-74
2022/09/23 06:13:11;;;;;;;25.80;23.17;;;9.60;84.10;;;;;;5107807;28;20044;-74
2022/09/23 06:15:38;;;;;;;23.80;21.17;;;9.60;84.40;;;;;;5106411;27;20050;-75
2022/09/23 06:18:05;;;;;;;23.85;20.90;;;9.60;84.60;;;;;;5106725;28;20044;-76
2022/09/23 06:20:33;;;;;;;19.60;17.40;;;9.60;84.80;;;;;;5088827;28;20522;-75
2022/09/23 06:23:04;;;;;;;22.00;19.60;;;9.60;85.00;;;;;;5103985;28;20054;-75
2022/09/23 06:25:33;;;;;;;25.35;21.70;;;9.70;85.00;;;;;;5085863;28;20051;-74
2022/09/23 06:27:59;;;;;;;25.23;22.50;;;9.70;85.10;;;;;;5104069;28;20044;-73
2022/09/23 06:30:26;;;;;;;27.50;22.58;;;9.70;84.60;;;;;;5104259;28;20104;-75
2022/09/23 06:32:54;;;;;;;25.42;22.85;;;9.80;84.60;;;;;;5105040;28;20563;-76
2022/09/23 06:35:25;;;;;;;25.50;22.75;;;9.90;84.60;;;;;;5085949;28;20051;-76
2022/09/23 06:37:52;;;;;;;25.85;22.80;;;9.90;84.70;;;;;;5103828;28;20056;-76
2022/09/23 06:40:18;;;;;;;23.48;21.05;;;10.00;85.30;;;;;;5106948;27;20047;-75
2022/09/23 06:42:44;;;;;;;23.30;20.10;;;10.00;85.00;;;;;;5110256;28;20541;-74
2022/09/23 06:45:11;;;;;;;25.65;22.38;;;10.00;84.90;;;;;;5110171;28;20035;-74
2022/09/23 06:47:42;;;;;;;21.27;18.92;;;10.10;85.00;;;;;;5116281;28;20104;-77
2022/09/23 06:50:09;;;;;;;27.05;21.92;;;10.20;84.70;;;;;;5117790;28;20040;-75
2022/09/23 06:52:34;;;;;;;25.25;22.08;;;10.30;84.50;;;;;;5118545;28;20130;-76
2022/09/23 06:55:00;;;;;;;24.60;21.95;;;10.30;85.00;;;;;;5117273;28;20210;-74
2022/09/23 06:57:30;;;;;;;20.85;18.67;;;10.40;85.00;;;;;;5117178;28;20084;-75
2022/09/23 06:59:58;;;;;;;24.92;22.38;;;10.50;84.30;;;;;;5118474;28;20043;-76
2022/09/23 07:02:25;;;;;;;26.13;23.17;;;10.50;84.70;;;;;;5118656;28;20046;-75
2022/09/23 07:04:51;;;;;;;25.77;22.73;;;10.60;84.50;;;;;;5118558;28;20035;-77
2022/09/23 07:07:17;;;;;;;24.60;21.60;;;10.70;85.10;;;;;;5118633;28;20040;-77
2022/09/23 07:09:44;;;;;;;24.85;22.27;;;10.70;85.00;;;;;;5118479;28;20062;-75
2022/09/23 07:12:09;;;;;;;27.13;21.27;;;10.80;84.60;;;;;;5118743;28;20031;-75
2022/09/23 07:14:35;;;;;;;28.70;24.50;;;10.80;85.20;;;;;;5118829;28;20502;-78
2022/09/23 07:17:02;;;;;;;23.88;21.27;;;10.90;84.80;;;;;;5101480;28;20444;-77
2022/09/23 07:19:28;;;;;;;26.02;23.20;;;11.00;85.00;;;;;;5118432;28;20044;-78
2022/09/23 07:21:54;;;;;;;25.77;23.08;;;11.00;84.60;;;;;;5094029;28;20501;-76
2022/09/23 07:24:19;;;;;;;26.00;22.40;;;11.00;85.00;;;;;;5115488;28;20368;-79
2022/09/23 07:26:45;;;;;;;29.65;23.35;;;11.10;84.80;;;;;;5118483;28;20062;-75
2022/09/23 07:29:12;;;;;;;24.27;21.67;;;11.00;84.60;;;;;;5118262;28;20044;-76
2022/09/23 07:31:39;;;;;;;27.90;22.42;;;11.10;84.30;;;;;;5118447;28;20294;-76
2022/09/23 07:34:05;;;;;;;33.20;27.00;;;11.10;83.80;;;;;;5118370;28;20122;-76
2022/09/23 07:36:31;;;;;;;26.58;22.98;;;11.20;84.30;;;;;;5118341;28;20082;-76
2022/09/23 07:39:02;;;;;;;25.60;22.20;;;11.30;84.50;;;;;;5118109;28;20478;-77
2022/09/23 07:41:29;;;;;;;22.88;20.63;;;11.40;84.40;;;;;;5118296;28;20039;-77
2022/09/23 07:43:57;;;;;;;22.90;20.60;;;11.40;84.40;;;;;;5101281;28;20487;-78
2022/09/23 07:46:27;;;;;;;24.40;21.95;;;11.50;83.90;;;;;;5118109;28;20495;-78
2022/09/23 07:48:54;;;;;;;24.92;22.20;;;11.50;84.10;;;;;;5101514;28;20403;-78
2022/09/23 07:51:24;;;;;;;20.75;18.65;;;11.60;83.80;;;;;;5116687;28;20071;-77
2022/09/23 07:53:51;;;;;;;23.45;21.00;;;11.60;84.10;;;;;;5115350;28;20035;-77
2022/09/23 07:56:18;;;;;;;23.25;20.73;;;11.70;84.10;;;;;;5114829;28;20039;-75
2022/09/23 07:58:45;;;;;;;31.33;21.08;;;11.80;84.70;;;;;;5114698;28;20047;-75
2022/09/23 08:01:11;;;;;;;25.73;20.95;;;11.80;84.80;;;;;;5114763;28;20495;-77
2022/09/23 08:03:38;;;;;;;21.85;19.35;;;11.90;84.40;;;;;;5114889;28;20302;-75
2022/09/23 08:06:11;;;;;;;21.17;19.00;;;12.00;84.10;;;;;;5114737;28;20100;-76
2022/09/23 08:08:42;;;;;;;22.45;20.17;;;12.10;83.90;;;;;;5114827;28;20061;-74
2022/09/23 08:11:09;;;;;;;25.13;18.42;;;12.20;83.60;;;;;;5115087;28;20062;-77
2022/09/23 08:13:36;;;;;;;22.35;19.83;;;12.30;83.90;;;;;;5098232;28;20043;-76
2022/09/23 08:16:02;;;;;;;22.20;19.80;;;12.40;83.80;;;;;;5097404;28;20040;-78
2022/09/23 08:18:28;;;;;;;21.17;18.88;;;12.40;83.70;;;;;;5097490;28;20036;-76
2022/09/23 08:20:53;;;;;;;18.25;16.05;;;12.50;83.40;;;;;;5114419;28;20051;-76
2022/09/23 08:23:19;;;;;;;19.45;17.48;;;12.60;83.20;;;;;;5097431;28;20067;-78
2022/09/23 08:25:46;;;;;;;22.60;17.92;;;12.70;83.00;;;;;;5114372;28;20043;-76
2022/09/23 08:28:17;;;;;;;18.00;16.05;;;12.70;82.90;;;;;;5097462;28;20047;-74
2022/09/23 08:30:46;;;;;;;20.58;16.92;;;12.80;82.50;;;;;;5114554;28;20053;-74
2022/09/23 08:33:12;;;;;;;17.85;15.95;;;12.90;82.30;;;;;;5114413;28;20043;-73
2022/09/23 08:35:41;;;;;;;18.45;16.40;;;12.90;82.20;;;;;;5113906;28;20612;-74
2022/09/23 08:38:07;;;;;;;20.13;15.93;;;13.00;81.80;;;;;;5114238;28;20455;-75
2022/09/23 08:40:39;;;;;;;17.42;15.65;;;13.00;81.90;;;;;;5114319;28;20135;-74
2022/09/23 08:43:26;;;;;;;23.35;17.55;;;13.00;81.80;;;;;;5113901;28;20039;-75
2022/09/23 08:45:53;;;;;;;19.55;17.42;;;13.10;81.70;;;;;;5114253;28;20145;-76
2022/09/23 08:48:28;;;;;;;22.17;19.30;;;13.10;82.20;;;;;;5114213;28;20426;-75
2022/09/23 08:51:01;;;;;;;19.65;16.60;;;13.20;82.20;;;;;;5114124;28;20044;-76
2022/09/23 08:53:31;;;;;;;18.13;15.63;;;13.20;82.20;;;;;;5114111;28;20488;-77
2022/09/23 08:56:29;;;;;;;18.25;16.25;;;13.30;82.00;;;;;;5114111;28;20146;-77
2022/09/23 08:59:08;;;;;;;20.50;17.25;;;13.30;81.80;;;;;;5110330;28;20445;-77
2022/09/23 09:01:42;;;;;;;19.85;16.70;;;13.40;81.60;;;;;;5113506;28;20040;-76
2022/09/23 09:04:16;;;;;;;;;;;13.40;81.50;;;;;;5113004;28;20050;-78
2022/09/23 09:07:01;;;;;;;20.65;18.45;;;13.50;81.80;;;;;;5113462;28;19957;-78
2022/09/23 09:09:50;;;;;;;22.20;18.92;;;13.50;81.90;;;;;;5111067;28;20043;-75
2022/09/23 09:12:23;;;;;;;20.98;18.98;;;13.50;81.90;;;;;;5106417;28;20043;-76
2022/09/23 09:15:09;;;;;;;19.40;17.20;;;13.50;81.90;;;;;;5088040;28;20062;-76
2022/09/23 09:17:35;;;;;;;18.88;16.88;;;13.50;81.80;;;;;;5104670;28;20050;-76
2022/09/23 09:20:22;;;;;;;19.83;17.73;;;13.50;81.60;;;;;;5105372;28;20043;-75
2022/09/23 09:22:56;;;;;;;18.33;16.42;;;13.60;81.70;;;;;;5088388;28;20112;-75
2022/09/23 09:25:43;;;;;;;21.58;17.30;;;13.70;81.30;;;;;;5104827;28;20048;-75
2022/09/23 09:28:29;;;;;;;24.60;17.52;;;13.70;81.60;;;;;;5087674;28;20047;-75
2022/09/23 09:31:41;;;;;;;20.90;18.70;;;13.80;81.50;;;;;;5105096;28;20076;-75
2022/09/23 09:34:26;;;;;;;19.20;16.58;;;13.90;81.80;;;;;;5101499;28;20507;-76
2022/09/23 09:37:13;;;;;;;19.63;16.02;;;14.00;81.50;;;;;;5105172;27;20309;-75
2022/09/23 09:39:39;;;;;;;18.38;16.02;;;14.00;81.50;;;;;;5104609;28;20594;-76
2022/09/23 09:42:06;;;;;;;16.83;13.95;;;14.10;81.80;;;;;;5104940;28;20082;-74
2022/09/23 09:44:37;;;;;;;14.85;13.20;;;14.20;81.60;;;;;;5104902;28;20054;-77
2022/09/23 09:47:30;;;;;;;20.50;17.05;;;14.30;81.40;;;;;;5104853;27;20043;-76
2022/09/23 09:50:05;;;;;;;21.80;17.70;;;14.30;81.20;;;;;;5104882;28;20042;-74
2022/09/23 09:52:31;;;;;;;22.00;17.48;;;14.40;81.20;;;;;;5103407;28;20502;-75
2022/09/23 09:55:12;;;;;;;17.95;15.85;;;14.50;81.00;;;;;;5070358;28;20043;-75
2022/09/23 09:57:48;;;;;;;18.10;16.20;;;14.50;81.20;;;;;;5103888;27;20131;-77
2022/09/23 10:00:33;;;;;;;26.58;23.98;;;14.50;81.40;;;;;;5087774;28;20048;-76
2022/09/23 10:03:18;;;;;;;;;;;14.50;81.20;;;;;;5105660;28;20373;-74
2022/09/23 10:05:44;;;;;;;20.45;18.27;;;14.50;81.90;;;;;;5103365;27;20759;-75
2022/09/23 10:08:34;;;;;;;18.38;16.48;;;14.50;81.60;;;;;;5104531;27;20043;-77
2022/09/23 10:11:07;;;;;;;18.63;15.80;;;14.50;81.60;;;;;;5087781;28;20136;-75
2022/09/23 10:13:32;;;;;;;19.83;17.55;;;14.60;81.80;;;;;;5103658;28;20628;-76
2022/09/23 10:16:02;;;;;;;18.75;16.55;;;14.60;81.60;;;;;;5103795;28;20118;-75
2022/09/23 10:18:47;;;;;;;17.77;15.88;;;14.60;82.00;;;;;;5106804;28;20051;-74
2022/09/23 10:21:20;;;;;;;19.95;17.05;;;14.60;81.60;;;;;;5106846;28;20131;-77
2022/09/23 10:24:06;;;;;;;19.77;16.35;;;14.70;82.00;;;;;;5106778;28;20056;-75
2022/09/23 10:26:39;;;;;;;19.02;16.98;;;14.70;82.20;;;;;;5105607;27;20039;-75
2022/09/23 10:29:30;;;;;;;20.23;18.13;;;14.70;82.10;;;;;;5107076;27;20117;-76
2022/09/23 10:32:30;;;;;;;17.83;15.73;;;14.70;82.20;;;;;;5107114;28;20035;-74
2022/09/23 10:35:00;;;;;;;21.17;17.25;;;14.70;82.20;;;;;;5089361;28;20065;-76
2022/09/23 10:37:35;;;;;;;21.33;16.73;;;14.70;82.40;;;;;;5105944;28;20052;-76
2022/09/23 10:46:37;;;;;;;22.63;17.35;;;14.70;83.20;;;;;;5104386;28;20058;-76
2022/09/23 10:49:09;;;;;;;16.75;14.93;;;14.70;83.00;;;;;;5104739;28;20821;-74
2022/09/23 10:51:45;;;;;;;20.95;18.75;;;14.70;83.10;;;;;;5106208;28;20097;-75
2022/09/23 10:54:11;;;;;;;21.90;17.67;;;14.70;83.00;;;;;;5105785;28;21272;-75
2022/09/23 10:56:47;;;;;;;21.15;18.95;;;14.70;83.20;;;;;;5106041;28;20038;-76
2022/09/23 10:59:47;;;;;;;22.90;19.38;;;14.60;84.50;;;;;;5105720;28;20161;-75
2022/09/23 11:02:16;;;;;;;20.17;17.98;;;14.60;85.10;;;;;;5105996;28;20051;-75
2022/09/23 11:04:54;;;;;;;22.73;19.90;;;14.60;85.50;;;;;;5106163;28;20051;-75
2022/09/23 11:07:43;;;;;;;21.25;19.02;;;14.60;84.40;;;;;;5106180;28;21219;-75
2022/09/23 11:10:38;;;;;;;23.58;19.92;;;14.60;85.40;;;;;;5108409;28;20035;-75
2022/09/23 11:13:31;;;;;;;21.48;19.27;;;14.70;86.10;;;;;;5094028;28;20043;-74
2022/09/23 11:16:37;;;;;;;22.52;19.92;;;14.70;86.30;;;;;;5095037;28;20095;-75
2022/09/23 11:19:33;;;;;;;23.48;20.88;;;14.70;86.60;;;;;;5112241;28;20114;-76
2022/09/23 11:22:19;;;;;;;26.70;21.00;;;14.80;85.90;;;;;;5112315;28;20038;-75
2022/09/23 11:24:59;;;;;;;25.48;22.77;;;14.80;87.10;;;;;;5095105;28;20069;-75
2022/09/23 11:28:06;;;;;;;25.33;22.73;;;14.80;87.60;;;;;;5114031;28;20453;-78
2022/09/23 11:30:46;;;;;;;25.40;21.73;;;14.80;87.10;;;;;;5099004;28;20074;-78
2022/09/23 11:33:51;;;;;;;25.85;21.55;;;14.90;86.30;;;;;;5099072;28;20040;-77
2022/09/23 11:36:23;;;;;;;;;;;15.00;86.70;;;;;;5087737;28;20047;-77
2022/09/23 11:38:52;;;;;;;27.48;23.88;;;15.00;87.50;;;;;;5115849;28;19969;-77
2022/09/23 11:41:31;;;;;;;27.48;24.58;;;15.00;87.40;;;;;;5116052;28;20054;-77
2022/09/23 11:44:14;;;;;;;29.77;26.30;;;15.00;88.00;;;;;;5115619;28;20089;-77
2022/09/23 11:46:57;;;;;;;28.08;25.08;;;14.90;88.80;;;;;;5115844;28;20376;-77
2022/09/23 11:49:40;;;;;;;29.70;26.60;;;14.90;88.50;;;;;;5115865;28;20047;-78
2022/09/23 11:52:18;;;;;;;27.15;22.92;;;14.90;88.80;;;;;;5115734;28;20104;-77
2022/09/23 11:54:59;;;;;;;29.73;26.73;;;15.00;88.10;;;;;;5115311;28;20381;-77
2022/09/23 11:57:32;;;;;;;28.05;25.33;;;15.00;88.60;;;;;;5115063;28;20044;-77
2022/09/23 12:00:05;;;;;;;28.15;25.02;;;15.00;88.40;;;;;;5115402;28;20047;-77
2022/09/23 12:02:47;;;;;;;27.23;24.33;;;14.90;88.30;;;;;;5115815;28;20049;-78
2022/09/23 12:05:21;;;;;;;27.48;24.50;;;15.00;88.50;;;;;;5115485;28;20277;-77
2022/09/23 12:08:08;;;;;;;28.83;25.83;;;14.90;87.80;;;;;;5115530;28;20089;-77
2022/09/23 12:11:01;;;;;;;30.80;25.50;;;15.00;88.00;;;;;;5101337;28;20075;-77
2022/09/23 12:13:45;;;;;;;29.38;26.27;;;15.00;88.50;;;;;;5098281;28;20376;-77
2022/09/23 12:16:29;;;;;;;26.50;23.70;;;15.00;88.90;;;;;;5115151;28;20040;-77
2022/09/23 12:19:12;;;;;;;;;;;15.00;88.00;;;;;;5098296;28;20075;-77
2022/09/23 12:21:50;;;;;;;28.45;23.77;;;15.00;88.10;;;;;;5115036;28;19915;-78
2022/09/23 12:24:56;;;;;;;27.63;24.38;;;15.00;87.70;;;;;;5115015;28;20040;-77
2022/09/23 12:27:48;;;;;;;30.48;25.15;;;15.00;88.00;;;;;;5114796;28;20092;-77
2022/09/23 12:30:19;;;;;;;32.03;27.13;;;15.00;88.40;;;;;;5114622;28;20403;-78
2022/09/23 12:32:45;;;;;;;28.17;25.17;;;15.00;89.10;;;;;;5114148;28;20035;-77
2022/09/23 12:35:26;;;;;;;31.02;26.50;;;15.00;89.10;;;;;;5114279;28;20043;-78
2022/09/23 12:37:52;;;;;;;29.77;26.52;;;15.00;89.00;;;;;;5115089;28;20042;-77
2022/09/23 12:40:18;;;;;;;29.52;25.52;;;14.90;89.10;;;;;;5097837;28;20040;-80
2022/09/23 12:42:45;;;;;;;30.33;26.95;;;14.90;89.10;;;;;;5098007;28;20380;-81
2022/09/23 12:45:30;;;;;;;33.55;29.02;;;14.90;89.20;;;;;;5115037;28;20410;-79
2022/09/23 12:47:57;;;;;;;32.25;27.13;;;14.90;89.80;;;;;;5097722;28;20036;-80
2022/09/23 12:50:44;;;;;;;32.08;28.58;;;14.90;89.20;;;;;;5080816;28;20154;-78
2022/09/23 12:53:32;;;;;;;32.55;29.17;;;14.90;89.30;;;;;;5114415;28;20487;-78
2022/09/23 12:55:59;;;;;;;32.17;26.30;;;14.80;89.90;;;;;;5114331;28;20093;-79
2022/09/23 12:58:56;;;;;;;42.92;31.55;;;14.80;89.50;;;;;;5114181;28;20097;-82
2022/09/23 13:01:24;;;;;;;33.05;28.42;;;14.80;90.10;;;;;;5114389;28;20442;-78
2022/09/23 13:06:52;;;;;;;38.10;32.38;;;14.80;90.50;;;;;;5114482;28;20044;-76
2022/09/23 13:09:26;;;;;;;40.22;33.22;;;14.70;90.60;;;;;;5114415;28;20388;-81
2022/09/23 13:11:55;;;;;;;37.13;31.52;;;14.70;90.60;;;;;;5114081;28;20476;-80
2022/09/23 13:14:23;;;;;;;37.58;32.17;;;14.70;90.00;;;;;;5097403;28;20077;-80